createdAt,value
2022-12-08T00:08:43.040Z,19.79
2022-12-08T00:18:51.974Z,18.66
2022-12-08T00:29:00.388Z,18.74
2022-12-08T00:39:08.677Z,17.45
2022-12-08T00:49:16.947Z,19.42
2022-12-08T00:59:25.264Z,19.33
2022-12-08T01:09:34.582Z,18.89
2022-12-08T01:19:42.895Z,18.39
2022-12-08T01:29:51.223Z,18.49
2022-12-08T01:39:59.333Z,18.14
2022-12-08T01:50:07.592Z,17.85
2022-12-08T02:00:14.669Z,18.53
2022-12-08T02:10:23.344Z,17.88
2022-12-08T02:20:31.900Z,18.05
2022-12-08T02:30:40.241Z,18.06
2022-12-08T02:40:48.439Z,17.45
2022-12-08T02:50:56.613Z,16.67
2022-12-08T03:01:04.697Z,17.27
2022-12-08T03:11:12.841Z,17.65
2022-12-08T03:21:20.938Z,17.73
2022-12-08T03:31:29.230Z,18.34
2022-12-08T03:41:37.493Z,18.69
2022-12-08T03:51:45.615Z,18.53
2022-12-08T04:01:54.250Z,18.51
2022-12-08T04:12:02.523Z,17.97
2022-12-08T04:22:10.809Z,18.39
2022-12-08T04:32:19.430Z,18.7
2022-12-08T04:42:30.241Z,17.6
2022-12-08T04:52:29.687Z,18.89
2022-12-08T05:02:40.246Z,19.71
2022-12-08T05:12:41.014Z,18.76
2022-12-08T05:22:39.146Z,19.57
2022-12-08T05:32:47.405Z,19.59
2022-12-08T05:42:55.598Z,18.08
2022-12-08T05:53:03.696Z,18.53
2022-12-08T06:03:11.984Z,20.05
2022-12-08T06:13:21.040Z,19.79
2022-12-08T06:23:30.418Z,19.37
2022-12-08T06:33:38.601Z,20.34
2022-12-08T06:43:46.750Z,20.21
2022-12-08T06:53:54.749Z,20.46
2022-12-08T07:04:04.542Z,20.51
2022-12-08T07:14:13.040Z,21.61
2022-12-08T07:24:21.672Z,22.36
2022-12-08T07:34:29.832Z,22.01
2022-12-08T07:44:42.200Z,21.32
2022-12-08T07:54:40.708Z,21.29
2022-12-08T08:04:48.934Z,23.11
2022-12-08T08:14:57.445Z,22.24
2022-12-08T08:25:05.863Z,23.05
2022-12-08T08:35:14.178Z,20.94
2022-12-08T08:45:23.951Z,22.17
2022-12-08T08:55:34.428Z,25.41
2022-12-08T09:05:36.394Z,21.32
2022-12-08T09:15:35.854Z,21.17
2022-12-08T09:25:44.142Z,21.83
2022-12-08T09:35:52.787Z,21.71
2022-12-08T09:46:02.346Z,20.94
2022-12-08T09:56:11.264Z,24.54
2022-12-08T10:06:25.617Z,28.69
2022-12-08T10:16:29.423Z,25.99
2022-12-08T10:26:35.308Z,26.97
2022-12-08T10:36:33.569Z,26.1
2022-12-08T10:46:45.593Z,25.24
2022-12-08T11:06:45.683Z,26.42
2022-12-08T11:16:54.032Z,26.82
2022-12-08T11:27:13.170Z,27.71
2022-12-08T11:37:19.790Z,26.83
2022-12-08T11:57:24.027Z,27.42
2022-12-08T12:07:31.007Z,31.39
2022-12-08T12:17:36.945Z,32.5
2022-12-08T12:27:43.154Z,31.57
2022-12-08T12:37:40.441Z,30.59
2022-12-08T12:47:52.533Z,36.95
2022-12-08T12:57:57.086Z,38.26
2022-12-08T13:08:05.599Z,41.66
2022-12-08T13:18:13.958Z,41.29
2022-12-08T13:28:23.354Z,40.58
2022-12-08T13:38:31.550Z,38.64
2022-12-08T13:49:53.034Z,40.76
2022-12-08T13:58:46.476Z,39
2022-12-08T14:09:02.562Z,39.79
2022-12-08T14:19:01.088Z,44.33
2022-12-08T14:29:09.668Z,40.03
2022-12-08T14:39:17.904Z,40.9
2022-12-08T14:49:26.219Z,40.2
2022-12-08T14:59:34.522Z,38.02
2022-12-08T15:09:42.769Z,36.11
2022-12-08T15:19:50.902Z,37.51
2022-12-08T15:29:58.824Z,38.8
2022-12-08T15:40:07.596Z,40.95
2022-12-08T15:50:14.508Z,39.64
2022-12-08T16:00:50.305Z,49.68
2022-12-08T16:10:40.503Z,42.07
2022-12-08T16:21:05.739Z,40.97
2022-12-08T16:30:43.786Z,43.36
2022-12-08T16:40:52.055Z,43.06
2022-12-08T16:51:00.102Z,43.53
2022-12-08T17:01:08.202Z,43.32
2022-12-08T17:11:16.119Z,43.08
2022-12-08T17:21:24.946Z,44.26
2022-12-08T17:31:32.190Z,41.85
2022-12-08T17:41:42.603Z,43.15
2022-12-08T18:01:43.494Z,42.81
2022-12-08T18:11:51.799Z,44.58
2022-12-08T18:22:00.006Z,41.21
2022-12-08T18:32:08.489Z,43.92
2022-12-08T18:42:16.934Z,46.5
2022-12-08T18:52:31.909Z,53.35
2022-12-08T19:12:28.001Z,51.34
2022-12-08T19:22:36.399Z,57.49
2022-12-08T19:32:44.829Z,47.11
2022-12-08T19:42:53.128Z,45.24
2022-12-08T19:53:01.733Z,67.71
2022-12-08T20:03:10.189Z,49.5
2022-12-08T20:13:19.756Z,45.72
2022-12-08T20:23:29.484Z,42.06
2022-12-08T20:33:38.962Z,41.68
2022-12-08T20:43:48.294Z,51.9
2022-12-08T20:53:58.041Z,48.33
2022-12-08T21:04:13.997Z,46.61
2022-12-08T21:14:12.540Z,45.39
2022-12-08T21:24:21.096Z,47.37
2022-12-08T21:34:30.505Z,42.9
2022-12-08T21:44:44.787Z,43.69
2022-12-08T21:54:43.475Z,46.1
2022-12-08T22:04:54.418Z,45.61
2022-12-08T22:25:04.396Z,46.11
2022-12-08T22:35:04.291Z,45.98
2022-12-08T22:45:14.226Z,45
2022-12-08T22:55:24.220Z,43.02
2022-12-08T23:15:25.245Z,40.94
2022-12-08T23:25:33.984Z,41.37
2022-12-08T23:35:42.641Z,38.25
2022-12-08T23:45:51.257Z,39.83
2022-12-08T23:55:59.996Z,38.24
